Decoded Metar for KMBY ( in ) (IATA:) | Meteo·Mobile Aviation Weather
aviador You're here:

KMBY Decoded Metar

in
Report Time2018-10-22 13:55:00
UTC Time2018-10-22 13:58:50
Flight Rules vfr VFR
Wind240° at 07 kt
W.Decomp.*RWY 23: 6.9 kt HW 1.2 kt RCW
RWY 31: 2.4 kt HW 6.6 kt LCW
W.Rank240° ranks 16
Current wind is below 240° avg. (8.4)
Visibility9999 m
Phenomena:N/A
Clouds:N/A
Expected CloudBase > 3,200 ft AGL from Temp-Dew spread
CeilingNone
Temp10°C
Dew Point02°C (58% RH)
AAT5.8°C
QNH1021 hPa
Raw Report
KMBY 221355Z AUTO 24007KT 10SM CLR 10/02 A3015 RMK AO2=

Extra information for KMBY:More info

Social comments